AirNav   Duncan Aviation - Near you to keep you flying
 
 1000 users online  

06NC Tailwinds Airport
St Pauls, North Carolina, USA

GOING TO ST PAULS?


FAA INFORMATION EFFECTIVE 01 DECEMBER 2022

Location

FAA Identifier: 06NC
Lat/Long: 34-49-39.0000N 078-55-49.0000W
34-49.650000N 078-55.816667W
34.8275000,-78.9302778
(estimated)
Elevation: 163 ft. / 50 m (estimated)
Variation: 07W (1990)
From city: 2 miles NE of ST. PAULS, NC
Time zone: UTC -5 (UTC -4 during Daylight Saving Time)
Zip code: 28384

Airport Operations

Airport use: Private use. Permission required prior to landing
Activation date: 04/1993
Control tower: no
ARTCC: WASHINGTON CENTER
FSS: RALEIGH FLIGHT SERVICE STATION
Attendance: UNATNDD
Wind indicator: yes
Segmented circle: no

Airport Communications

WX ASOS at FAY (10 nm N): 121.25 (910-484-1546)
WX ASOS at LBT (15 nm SW): 134.775 (910-739-7120)

Nearby radio navigation aids

VOR radial/distance  VOR name  Freq  Var
FAYr200/9.9FAYETTEVILLE VOR/DME114.8504W
SDZr129/39.8SANDHILLS VORTAC111.8003W

 
NDB name  Hdg/Dist  Freq  Var  ID
CLINTON261/29.341209WCTZ -.-. - --..
DILLON053/31.327409WDLC -.. .-.. -.-.
CAMP349/35.022707WCPC -.-. .--. -.-.
HARNETT207/38.441708WHQT .... --.- -

Airport Services

Runway Information

Runway 9/27

Dimensions: 2600 x 90 ft. / 792 x 27 m
Surface: turf
RUNWAY 9  RUNWAY 27
Traffic pattern: leftleft
Displaced threshold: no500 ft.
Obstructions: none60 ft. pline, 100 ft. from runway

Airport Ownership and Management from official FAA records

Ownership: Privately-owned
Owner: ROBERT ROGERS
385 TAILWINDS LANE
ST PAULS, NC 28384
Phone 910-865-5611
CELL 910-778-6853
Manager: ROBERT ROGERS
385 TAILWINDS LANE
ST PAULS, NC 28384
Phone 910-865-5611
CELL 910-778-6853

Airport Operational Statistics

Aircraft based on the field: 2
Single engine airplanes: 2
    

Additional Remarks

FOR CD CTC WASHINGTON ARTCC AT 703-771-3587.

Instrument Procedures

There are no published instrument procedures at 06NC.

Some nearby airports with instrument procedures:

KFAY - Fayetteville Regional Airport/Grannis Field (10 nm N)
KLBT - Lumberton Regional Airport (15 nm SW)
5W4 - P K Airpark (17 nm NW)
KFBG - Simmons Army Airfield (18 nm N)
KPOB - Pope Army Airfield (21 nm N)
 
Loc | Ops | Rwys | IFR | FBO | Links
Com | Nav | Svcs | Stats | Notes
Area around 06NC (Tailwinds Airport)
 
Road maps at: MapQuest Bing Google
 
Aerial photo
No photo
 
Sectional chart

 
Airport distance calculator
Flying to Tailwinds Airport? Find the distance to fly.

From to 06NC

Sunrise and sunset
Times for 06-Dec-2022
 Local
(UTC-5)
 Zulu
(UTC)
Morning civil twilight06:4211:42
Sunrise07:1012:10
Sunset17:0322:03
Evening civil twilight17:3122:31

Current date and time
Zulu (UTC)  07-Dec-2022 04:13:11
Local (UTC-5)  06-Dec-2022 23:13:11
 
METAR
KFAY 
10nm N 
070353Z 15004KT 10SM FEW050 BKN085 BKN110 16/14 A3024 RMK AO2 SLP235 T01610144
KLBT 
15nm SW 
070356Z AUTO 14003KT 10SM SCT060 BKN090 16/15 A3025 RMK AO2 SLP243 T01560150 TSNO
KFBG 
17nm N 
070355Z AUTO 00000KT 10SM BKN090 14/14 A3023 RMK AO2 SLP240 T01440142 $
TAF
KFAY 
10nm N 
062111Z 0621/0718 00000KT P6SM SCT040 BKN060 BKN070 FM070600 VRB03KT 3SM BR OVC025
KLBT 
15nm SW 
062102Z 0621/0718 12003KT P6SM OVC050 FM070700 00000KT 2SM BR OVC010 FM071500 22004KT P6SM BKN050
KFBG 
17nm N 
070200Z 0702/0808 24004KT 9999 -DZ BR OVC025 QNH3023INS BECMG 0703/0704 18004KT 8000 BR -DZ OVC008 QNH3028INS BECMG 0715/0716 18004KT 9999 BKN010 QNH3030INS BECMG 0720/0721 23004KT 9999 OVC008 QNH3025INS BECMG 0722/0723 24004KT 6000 BR OVC002 QNH3023INS TX17/0720Z TN12/0709Z
NOTAMs
Click for the latest NOTAMs
NOTAMs are issued by the DoD/FAA and will open in a separate window not controlled by AirNav.

 

 
 

Would you like to see your business listed on this page?

 If your business provides an interesting product or service to pilots, flight crews, aircraft, or users of the Tailwinds Airport, you should consider listing it here.  To start the listing process, click on the button below
 
Add a business
 

Other Pages about Tailwinds Airport

Update a link
 
Copyright © AirNav, LLC. All rights reserved. Privacy Policy  Contact